Time;durP1;ratioP1;P1;durP2;ratioP2;P2;SDS_P1;SDS_P2;PMS_P1;PMS_P2;Temp;Humidity;BMP_temperature;BMP_pressure;BME280_temperature;BME280_humidity;BME280_pressure;Samples;Min_cycle;Max_cycle;Signal;HPM_P1;HPM_P2
2023/02/04 00:00:40;;;;;;;19.40;8.60;;;11.70;99.90;;;;;;5023820;23;20160;-93
2023/02/04 00:02:42;;;;;;;20.13;8.48;;;11.80;99.90;;;;;;5022880;23;20743;-94
2023/02/04 00:04:45;;;;;;;19.23;8.45;;;11.80;99.90;;;;;;5023642;23;20159;-93
2023/02/04 00:06:46;;;;;;;20.67;8.70;;;11.80;99.90;;;;;;5022239;23;20614;-93
2023/02/04 00:08:46;;;;;;;17.48;8.35;;;11.80;99.90;;;;;;4998632;23;20228;-94
2023/02/04 00:10:47;;;;;;;17.38;8.98;;;11.90;99.90;;;;;;4998547;23;20160;-93
2023/02/04 00:12:50;;;;;;;19.33;8.75;;;11.80;99.90;;;;;;4998982;23;20160;-93
2023/02/04 00:14:53;;;;;;;22.38;8.93;;;11.60;99.90;;;;;;4998935;23;20160;-94
2023/02/04 00:16:54;;;;;;;20.58;8.13;;;11.50;99.90;;;;;;5023605;23;20151;-93
2023/02/04 00:18:55;;;;;;;17.90;8.18;;;11.40;99.90;;;;;;5023598;23;20175;-93
2023/02/04 00:20:58;;;;;;;18.80;8.45;;;11.50;99.90;;;;;;4998287;23;20183;-93
2023/02/04 00:22:59;;;;;;;22.83;9.00;;;11.30;99.90;;;;;;4998372;23;20167;-92
2023/02/04 00:25:00;;;;;;;19.55;8.82;;;11.40;99.90;;;;;;5026255;23;20151;-92
2023/02/04 00:27:01;;;;;;;17.63;8.30;;;11.30;99.90;;;;;;4998185;23;20155;-91
2023/02/04 00:29:02;;;;;;;19.58;8.77;;;11.20;99.90;;;;;;5022193;23;20175;-93
2023/02/04 00:31:03;;;;;;;20.40;8.80;;;11.20;99.90;;;;;;5022367;23;20215;-93
2023/02/04 00:33:04;;;;;;;19.73;9.02;;;11.40;99.90;;;;;;4998192;23;20170;-94
2023/02/04 00:35:05;;;;;;;17.08;8.40;;;11.60;99.90;;;;;;4998321;23;20519;-92
2023/02/04 00:37:06;;;;;;;17.60;8.40;;;11.60;99.90;;;;;;4998430;23;20160;-92
2023/02/04 00:39:07;;;;;;;26.85;9.13;;;11.70;99.90;;;;;;5022914;23;20178;-94
2023/02/04 00:41:08;;;;;;;22.70;8.70;;;11.90;99.90;;;;;;5000135;23;20682;-94
2023/02/04 00:43:12;;;;;;;19.60;9.30;;;12.00;99.90;;;;;;4999852;23;20492;-95
2023/02/04 00:45:13;;;;;;;18.92;9.15;;;11.70;99.90;;;;;;5023704;23;20190;-93
2023/02/04 00:47:14;;;;;;;17.77;9.27;;;11.60;99.90;;;;;;4998521;23;20500;-93
2023/02/04 00:49:18;;;;;;;20.88;9.30;;;11.60;99.90;;;;;;4999432;23;20180;-93
2023/02/04 00:51:19;;;;;;;19.58;9.57;;;11.50;99.90;;;;;;5023485;23;20222;-93
2023/02/04 00:53:20;;;;;;;26.23;9.65;;;11.40;99.90;;;;;;4998403;23;20171;-92
2023/02/04 00:55:20;;;;;;;20.83;9.70;;;11.40;99.90;;;;;;5021868;23;20235;-94
2023/02/04 00:57:23;;;;;;;20.15;9.38;;;11.50;99.90;;;;;;4997877;23;20163;-93
2023/02/04 00:59:24;;;;;;;19.25;9.73;;;11.60;99.90;;;;;;5009227;23;20180;-92
2023/02/04 01:01:27;;;;;;;20.55;8.88;;;11.50;99.90;;;;;;5019988;23;20203;-93
2023/02/04 01:03:30;;;;;;;20.88;9.32;;;11.10;99.90;;;;;;5043601;23;20187;-94
2023/02/04 01:05:31;;;;;;;19.42;9.40;;;10.90;99.90;;;;;;5013880;23;20164;-93
2023/02/04 01:07:31;;;;;;;28.88;9.30;;;10.90;99.90;;;;;;5021977;23;20151;-92
2023/02/04 01:09:32;;;;;;;22.27;9.88;;;10.90;99.90;;;;;;5022282;23;20155;-93
2023/02/04 01:11:33;;;;;;;21.92;9.15;;;10.90;99.90;;;;;;4998890;23;20203;-93
2023/02/04 01:13:34;;;;;;;22.30;10.52;;;10.80;99.90;;;;;;5022668;23;20166;-94
2023/02/04 01:15:35;;;;;;;23.33;9.95;;;11.00;99.90;;;;;;4998778;23;20635;-94
2023/02/04 01:17:36;;;;;;;22.70;9.82;;;11.20;99.90;;;;;;5021520;23;20171;-92
2023/02/04 01:19:36;;;;;;;20.95;9.00;;;11.30;99.90;;;;;;4999440;23;20159;-95
2023/02/04 01:21:39;;;;;;;18.55;9.95;;;11.20;99.90;;;;;;5022250;23;20198;-93
2023/02/04 01:23:43;;;;;;;24.40;10.80;;;10.80;99.90;;;;;;4998182;23;20162;-94
2023/02/04 01:25:44;;;;;;;17.30;9.38;;;10.80;99.90;;;;;;5021626;23;20162;-91
2023/02/04 01:27:45;;;;;;;23.58;10.25;;;10.60;99.90;;;;;;5021568;23;20163;-92
2023/02/04 01:29:46;;;;;;;19.52;9.70;;;10.70;99.90;;;;;;5021521;23;20159;-93
2023/02/04 01:31:47;;;;;;;24.30;10.88;;;10.60;99.90;;;;;;5023389;23;20170;-94
2023/02/04 01:33:48;;;;;;;25.77;10.80;;;10.70;99.90;;;;;;4998093;23;20671;-95
2023/02/04 01:35:48;;;;;;;23.25;11.55;;;11.00;99.90;;;;;;4997864;23;20247;-93
2023/02/04 01:37:51;;;;;;;23.52;11.00;;;11.40;99.90;;;;;;4997803;23;20236;-93
2023/02/04 01:39:52;;;;;;;27.95;12.80;;;11.50;99.90;;;;;;4997868;23;20598;-92
2023/02/04 01:41:59;;;;;;;30.77;11.93;;;11.60;99.90;;;;;;5021275;23;20221;-94
2023/02/04 01:44:00;;;;;;;20.83;10.73;;;11.20;99.90;;;;;;5021293;23;20154;-94
2023/02/04 01:46:05;;;;;;;22.95;10.93;;;11.00;99.90;;;;;;4998378;23;20179;-93
2023/02/04 01:48:06;;;;;;;24.48;11.63;;;10.80;99.90;;;;;;4998082;23;20190;-93
2023/02/04 01:50:13;;;;;;;21.27;11.77;;;10.80;99.90;;;;;;5021533;23;20197;-93
2023/02/04 01:52:14;;;;;;;21.23;11.18;;;11.40;99.90;;;;;;4997783;23;20223;-93
2023/02/04 01:54:16;;;;;;;23.10;10.65;;;11.50;99.90;;;;;;5021873;23;20158;-92
2023/02/04 01:56:20;;;;;;;33.72;11.90;;;11.10;99.90;;;;;;5022693;23;20159;-94
2023/02/04 01:58:24;;;;;;;33.63;12.23;;;11.10;99.90;;;;;;5023550;23;20175;-93
2023/02/04 02:00:28;;;;;;;25.75;11.23;;;11.20;99.90;;;;;;4997891;23;20167;-93
2023/02/04 02:02:47;;;;;;;28.90;11.27;;;10.90;99.90;;;;;;4997636;23;20627;-94
2023/02/04 02:04:48;;;;;;;23.98;10.55;;;10.70;99.90;;;;;;4997354;23;20159;-93
2023/02/04 02:06:54;;;;;;;27.67;11.25;;;10.60;99.90;;;;;;5022604;23;20166;-93
2023/02/04 02:08:57;;;;;;;21.83;11.93;;;10.70;99.90;;;;;;5021673;23;20171;-93
2023/02/04 02:10:57;;;;;;;20.58;11.20;;;10.60;99.90;;;;;;4997951;23;20160;-92
2023/02/04 02:12:58;;;;;;;21.98;11.45;;;10.60;99.90;;;;;;4997299;23;20167;-93
2023/02/04 02:15:04;;;;;;;18.75;10.88;;;10.60;99.90;;;;;;5000386;23;20162;-93
2023/02/04 02:17:05;;;;;;;32.40;12.45;;;10.50;99.90;;;;;;5021217;23;20159;-92
2023/02/04 02:19:14;;;;;;;27.02;10.63;;;10.40;99.90;;;;;;5045067;23;20214;-95
2023/02/04 02:21:30;;;;;;;27.52;11.30;;;10.40;99.90;;;;;;5020903;23;20289;-95
2023/02/04 02:23:56;;;;;;;24.27;11.93;;;10.50;99.90;;;;;;4997329;23;20308;-93
2023/02/04 02:26:00;;;;;;;26.67;11.70;;;10.80;99.90;;;;;;5022782;23;20159;-93
2023/02/04 02:28:03;;;;;;;26.90;11.95;;;10.80;99.90;;;;;;5022164;23;20217;-93
2023/02/04 02:30:08;;;;;;;25.75;12.48;;;10.70;99.90;;;;;;4997410;23;20160;-93
2023/02/04 02:32:11;;;;;;;19.17;11.23;;;10.70;99.90;;;;;;4999318;23;20525;-93
2023/02/04 02:34:12;;;;;;;34.47;12.82;;;10.70;99.90;;;;;;5021676;23;20514;-93
2023/02/04 02:36:16;;;;;;;28.10;12.40;;;10.60;99.90;;;;;;5021108;23;20151;-92
2023/02/04 02:38:18;;;;;;;26.83;11.93;;;10.70;99.90;;;;;;5020960;23;20556;-92
2023/02/04 02:40:19;;;;;;;26.08;11.70;;;10.60;99.90;;;;;;5021257;23;20159;-94
2023/02/04 02:42:20;;;;;;;23.73;11.77;;;10.60;99.90;;;;;;4997192;23;20535;-93
2023/02/04 02:44:22;;;;;;;22.90;12.30;;;10.60;99.90;;;;;;4997192;23;20623;-94
2023/02/04 02:46:31;;;;;;;32.05;13.18;;;10.50;99.90;;;;;;5020851;23;20249;-93
2023/02/04 02:48:32;;;;;;;24.70;12.82;;;10.60;99.90;;;;;;5021683;23;20174;-92
2023/02/04 02:50:55;;;;;;;17.73;11.50;;;10.60;99.90;;;;;;4997689;23;20159;-93
2023/02/04 02:53:10;;;;;;;20.58;11.63;;;10.80;99.90;;;;;;5044870;23;20159;-94
2023/02/04 02:55:15;;;;;;;22.27;12.23;;;10.30;99.90;;;;;;4997399;23;20168;-94
2023/02/04 02:57:20;;;;;;;21.27;12.18;;;10.10;99.90;;;;;;5020776;23;20242;-93
2023/02/04 02:59:21;;;;;;;22.08;11.55;;;10.10;99.90;;;;;;4997191;23;20333;-92
2023/02/04 03:01:22;;;;;;;23.80;12.02;;;10.10;99.90;;;;;;4997735;23;20203;-93
2023/02/04 03:03:30;;;;;;;24.52;12.70;;;10.20;99.90;;;;;;4997744;23;20607;-92
2023/02/04 03:05:37;;;;;;;25.50;12.57;;;10.30;99.90;;;;;;4997385;23;20223;-93
2023/02/04 03:07:37;;;;;;;22.67;13.38;;;10.40;99.90;;;;;;5020823;23;20163;-93
2023/02/04 03:09:38;;;;;;;24.02;13.57;;;10.50;99.90;;;;;;4997180;23;20187;-93
2023/02/04 03:11:39;;;;;;;20.90;12.82;;;10.40;99.90;;;;;;5020818;23;20155;-93
2023/02/04 03:13:43;;;;;;;24.95;13.27;;;10.50;99.90;;;;;;4999679;23;20162;-92
2023/02/04 03:15:47;;;;;;;21.33;13.23;;;10.40;99.90;;;;;;5021238;23;20618;-93
2023/02/04 03:17:59;;;;;;;22.30;12.98;;;10.60;99.90;;;;;;5021234;23;20155;-92
2023/02/04 03:20:00;;;;;;;25.70;13.25;;;10.70;99.90;;;;;;4997281;23;20222;-93
2023/02/04 03:22:05;;;;;;;23.63;13.02;;;10.60;99.90;;;;;;4997078;23;20520;-94
2023/02/04 03:24:06;;;;;;;31.75;13.60;;;10.50;99.90;;;;;;4996436;23;20191;-92
2023/02/04 03:26:06;;;;;;;32.15;13.02;;;10.40;99.90;;;;;;5020905;23;20170;-92
2023/02/04 03:28:08;;;;;;;24.80;12.82;;;10.60;99.90;;;;;;5020946;23;20250;-94
2023/02/04 03:30:10;;;;;;;24.48;13.20;;;10.70;99.90;;;;;;5020957;23;20159;-94
2023/02/04 03:32:11;;;;;;;19.48;12.55;;;10.80;99.90;;;;;;4997209;23;20159;-93
2023/02/04 03:34:12;;;;;;;20.90;12.82;;;10.60;99.90;;;;;;4997164;23;20155;-94
2023/02/04 03:36:15;;;;;;;21.05;12.55;;;10.60;99.90;;;;;;5020786;23;20158;-92
2023/02/04 03:38:17;;;;;;;21.10;12.98;;;10.50;99.90;;;;;;4997784;23;20254;-92
2023/02/04 03:40:18;;;;;;;19.73;12.50;;;10.70;99.90;;;;;;5024096;23;20238;-93
2023/02/04 03:42:21;;;;;;;17.75;12.40;;;10.60;99.90;;;;;;5020845;23;20230;-93
2023/02/04 03:44:25;;;;;;;21.13;12.85;;;10.60;99.90;;;;;;5022554;23;20158;-93
2023/02/04 03:46:28;;;;;;;19.48;12.55;;;10.60;99.90;;;;;;4996936;23;20191;-93
2023/02/04 03:48:29;;;;;;;21.10;12.93;;;10.80;99.90;;;;;;4997175;23;20230;-93
2023/02/04 03:50:30;;;;;;;17.10;12.68;;;11.10;99.90;;;;;;5021009;23;20158;-94
2023/02/04 03:52:31;;;;;;;20.60;13.15;;;11.30;99.90;;;;;;4997343;23;20212;-94
2023/02/04 03:54:31;;;;;;;18.00;12.30;;;11.20;99.90;;;;;;4997578;23;20168;-93
2023/02/04 03:56:32;;;;;;;18.17;12.55;;;10.70;99.90;;;;;;4997145;23;20156;-95
2023/02/04 03:58:33;;;;;;;18.55;11.43;;;10.80;99.90;;;;;;5044747;23;20530;-92
2023/02/04 04:00:34;;;;;;;19.48;12.52;;;10.70;99.90;;;;;;4996813;23;20259;-92
2023/02/04 04:02:34;;;;;;;18.15;12.82;;;10.70;99.90;;;;;;4997949;23;20156;-94
2023/02/04 04:04:40;;;;;;;17.92;12.52;;;10.80;99.90;;;;;;4996953;23;20166;-92
2023/02/04 04:06:41;;;;;;;17.63;12.73;;;10.80;99.90;;;;;;4997408;23;20183;-93
2023/02/04 04:08:41;;;;;;;18.35;12.60;;;10.90;99.90;;;;;;4998294;23;20167;-93
2023/02/04 04:10:42;;;;;;;17.83;12.13;;;11.10;99.90;;;;;;4999178;23;20164;-92
2023/02/04 04:12:43;;;;;;;17.98;13.05;;;11.20;99.90;;;;;;4999158;23;20156;-93
2023/02/04 04:14:44;;;;;;;20.13;13.05;;;11.20;99.90;;;;;;4998760;23;20184;-93
2023/02/04 04:16:44;;;;;;;17.05;12.23;;;10.80;99.90;;;;;;5022323;23;20230;-92
2023/02/04 04:18:45;;;;;;;16.50;12.02;;;10.70;99.90;;;;;;4998309;23;20179;-93
2023/02/04 04:20:46;;;;;;;17.52;12.32;;;10.70;99.90;;;;;;4998687;23;20218;-94
2023/02/04 04:22:46;;;;;;;19.95;12.43;;;10.70;99.90;;;;;;5022438;23;20158;-94
2023/02/04 04:24:47;;;;;;;20.67;12.82;;;10.60;99.90;;;;;;4999202;23;20646;-93
2023/02/04 04:26:48;;;;;;;17.50;10.75;;;10.50;99.90;;;;;;4999734;23;20160;-92
2023/02/04 04:28:49;;;;;;;15.98;12.05;;;10.50;99.90;;;;;;4998384;23;20199;-93
2023/02/04 04:30:49;;;;;;;15.63;11.55;;;10.30;99.90;;;;;;4998977;23;20769;-93
2023/02/04 04:32:50;;;;;;;18.10;12.95;;;10.50;99.90;;;;;;5022134;23;20234;-92
2023/02/04 04:34:51;;;;;;;19.88;13.45;;;10.80;99.90;;;;;;5022039;23;20159;-93
2023/02/04 04:36:52;;;;;;;21.80;13.27;;;10.80;99.90;;;;;;4975122;23;20210;-92
2023/02/04 04:38:52;;;;;;;18.85;13.85;;;10.80;99.90;;;;;;4999189;23;20190;-92
2023/02/04 04:40:53;;;;;;;20.05;14.07;;;10.80;99.90;;;;;;4997973;23;20600;-93
2023/02/04 04:42:54;;;;;;;21.00;14.05;;;10.70;99.90;;;;;;5001896;23;20200;-92
2023/02/04 04:44:55;;;;;;;19.83;13.88;;;10.80;99.90;;;;;;4998345;23;20155;-92
2023/02/04 04:46:55;;;;;;;23.70;14.82;;;10.70;99.90;;;;;;5022138;23;20155;-93
2023/02/04 04:48:56;;;;;;;23.15;15.07;;;10.80;99.90;;;;;;4997926;23;20176;-91
2023/02/04 04:50:57;;;;;;;23.05;14.82;;;10.70;99.90;;;;;;4998368;23;20219;-93
2023/02/04 04:52:58;;;;;;;24.40;15.63;;;10.60;99.90;;;;;;4998214;23;20228;-92
2023/02/04 04:54:58;;;;;;;25.25;15.48;;;10.60;99.90;;;;;;4998339;23;20160;-92
2023/02/04 04:56:59;;;;;;;24.98;15.82;;;10.60;99.90;;;;;;4998826;23;20234;-93
2023/02/04 04:59:00;;;;;;;25.05;15.70;;;10.80;99.90;;;;;;5022053;23;20210;-92
2023/02/04 05:01:01;;;;;;;23.25;15.70;;;10.70;99.90;;;;;;4998754;23;20186;-94
2023/02/04 05:03:01;;;;;;;27.00;15.70;;;10.60;99.90;;;;;;4999012;23;20175;-92
2023/02/04 05:05:03;;;;;;;27.88;17.27;;;10.40;99.90;;;;;;4998079;23;20591;-94
2023/02/04 05:07:04;;;;;;;29.55;17.23;;;10.50;99.90;;;;;;5021788;23;20163;-92
2023/02/04 05:09:05;;;;;;;26.98;17.08;;;10.30;99.90;;;;;;5021799;23;20515;-92
2023/02/04 05:11:08;;;;;;;29.95;17.73;;;10.30;99.90;;;;;;4998025;23;20212;-93
2023/02/04 05:13:09;;;;;;;25.48;16.13;;;10.50;99.90;;;;;;5021696;23;20251;-92
2023/02/04 05:15:12;;;;;;;26.23;15.80;;;10.40;99.90;;;;;;4998489;23;20204;-93
2023/02/04 05:17:13;;;;;;;26.08;16.42;;;10.30;99.90;;;;;;4998163;23;20166;-93
2023/02/04 05:19:13;;;;;;;28.75;15.93;;;10.40;99.90;;;;;;4997702;23;20207;-93
2023/02/04 05:21:14;;;;;;;25.05;15.88;;;10.40;99.90;;;;;;4997848;23;20220;-93
2023/02/04 05:23:16;;;;;;;28.08;15.68;;;10.60;99.90;;;;;;4997742;23;20216;-92
2023/02/04 05:25:16;;;;;;;27.27;14.40;;;10.60;99.90;;;;;;4997972;23;20151;-93
2023/02/04 05:27:17;;;;;;;29.05;16.30;;;10.60;99.90;;;;;;4998188;23;20207;-93
2023/02/04 05:29:21;;;;;;;26.48;14.65;;;10.30;99.90;;;;;;4997914;23;20180;-93
2023/02/04 05:31:21;;;;;;;25.38;15.43;;;10.40;99.90;;;;;;5022556;23;20155;-92
2023/02/04 05:33:25;;;;;;;28.48;16.65;;;10.50;99.90;;;;;;4999241;23;20155;-92
2023/02/04 05:35:25;;;;;;;27.52;15.82;;;10.40;99.90;;;;;;5022416;23;20211;-93
2023/02/04 05:37:28;;;;;;;26.75;16.15;;;10.40;99.90;;;;;;4997908;23;20151;-92
2023/02/04 05:39:32;;;;;;;29.30;16.73;;;10.40;99.90;;;;;;4997768;23;20231;-93
2023/02/04 05:41:32;;;;;;;29.05;17.05;;;10.50;99.90;;;;;;4998536;23;20187;-92
2023/02/04 05:43:34;;;;;;;30.17;16.55;;;10.50;99.90;;;;;;5022926;23;20191;-96
2023/02/04 05:45:34;;;;;;;34.15;18.08;;;10.50;99.90;;;;;;4997749;23;20168;-94
2023/02/04 05:47:35;;;;;;;32.08;17.98;;;10.60;99.90;;;;;;5021432;23;20245;-92
2023/02/04 05:49:36;;;;;;;36.78;18.60;;;10.60;99.90;;;;;;4997836;23;20156;-91
2023/02/04 05:51:37;;;;;;;32.15;19.42;;;10.60;99.90;;;;;;5021351;23;20159;-91
2023/02/04 05:53:37;;;;;;;39.25;19.83;;;10.50;99.90;;;;;;4997881;23;20247;-91
2023/02/04 05:55:38;;;;;;;44.13;20.77;;;10.60;99.90;;;;;;4999154;23;20255;-92
2023/02/04 05:57:40;;;;;;;42.67;21.15;;;10.50;99.90;;;;;;5021554;23;20214;-91
2023/02/04 05:59:41;;;;;;;43.20;20.17;;;10.40;99.90;;;;;;4997875;23;20537;-92
2023/02/04 06:01:42;;;;;;;44.03;22.60;;;10.50;99.90;;;;;;5021213;23;20203;-92
2023/02/04 06:03:42;;;;;;;41.35;21.95;;;10.50;99.90;;;;;;4997708;23;20160;-92
2023/02/04 06:05:43;;;;;;;40.17;21.70;;;10.50;99.90;;;;;;4997398;23;20159;-93
2023/02/04 06:07:44;;;;;;;45.13;23.52;;;10.30;99.90;;;;;;4998309;23;20242;-91
2023/02/04 06:09:45;;;;;;;44.58;23.77;;;10.30;99.90;;;;;;5021214;23;20239;-91
2023/02/04 06:11:45;;;;;;;34.40;20.95;;;10.40;99.90;;;;;;4997978;23;20158;-91
2023/02/04 06:13:46;;;;;;;46.58;22.17;;;10.30;99.90;;;;;;5021059;23;20238;-92
2023/02/04 06:15:47;;;;;;;41.88;22.40;;;10.00;99.90;;;;;;4997875;23;20156;-94
2023/02/04 06:17:48;;;;;;;37.95;20.10;;;10.00;99.90;;;;;;5021473;23;20197;-94
2023/02/04 06:19:50;;;;;;;33.58;18.77;;;9.90;99.90;;;;;;4997149;23;20247;-94
2023/02/04 06:21:50;;;;;;;35.95;20.05;;;9.90;99.90;;;;;;5021176;23;20194;-93
2023/02/04 06:23:51;;;;;;;40.50;20.80;;;9.90;99.90;;;;;;4997596;23;20166;-94
2023/02/04 06:25:52;;;;;;;37.80;20.35;;;10.10;99.90;;;;;;4997760;23;20167;-92
2023/02/04 06:27:55;;;;;;;40.28;20.40;;;10.20;99.90;;;;;;4997391;23;20228;-94
2023/02/04 06:30:01;;;;;;;37.45;21.25;;;10.30;99.90;;;;;;4997381;23;20622;-95
2023/02/04 06:32:01;;;;;;;40.88;21.10;;;10.30;99.90;;;;;;5020985;23;20151;-93
2023/02/04 06:34:05;;;;;;;43.70;21.33;;;10.20;99.90;;;;;;5020921;23;20170;-92
2023/02/04 06:36:08;;;;;;;36.45;19.48;;;10.20;99.90;;;;;;5021313;23;20151;-92
2023/02/04 06:38:08;;;;;;;39.47;21.70;;;10.20;99.90;;;;;;5021023;23;20254;-93
2023/02/04 06:40:11;;;;;;;38.50;20.85;;;10.20;99.90;;;;;;4997573;23;20152;-93
2023/02/04 06:42:11;;;;;;;38.92;21.48;;;10.30;99.90;;;;;;4997349;23;20195;-92
2023/02/04 06:44:12;;;;;;;50.70;21.10;;;10.30;99.90;;;;;;5021083;23;20154;-93
2023/02/04 06:46:13;;;;;;;42.47;21.00;;;10.20;99.90;;;;;;4997467;23;20207;-93
2023/02/04 06:48:14;;;;;;;36.60;20.02;;;10.20;99.90;;;;;;5021128;23;20231;-94
2023/02/04 06:50:17;;;;;;;37.47;19.63;;;10.30;99.90;;;;;;5020895;23;20161;-95
2023/02/04 06:52:18;;;;;;;40.10;19.48;;;10.40;99.90;;;;;;4997644;23;20159;-93
2023/02/04 06:54:19;;;;;;;37.65;18.67;;;10.60;99.90;;;;;;5021531;23;20532;-95
2023/02/04 06:56:19;;;;;;;34.22;18.30;;;10.60;99.90;;;;;;4997520;23;20167;-93
2023/02/04 06:58:20;;;;;;;39.47;18.80;;;10.70;99.90;;;;;;4997240;23;20180;-93
2023/02/04 07:00:23;;;;;;;40.70;19.08;;;10.50;99.90;;;;;;4997421;23;20170;-90
2023/02/04 07:02:24;;;;;;;32.67;18.35;;;10.30;99.90;;;;;;4997486;23;20219;-94
2023/02/04 07:04:25;;;;;;;36.28;18.30;;;10.30;99.90;;;;;;5021002;23;20190;-93
2023/02/04 07:06:25;;;;;;;33.75;18.85;;;10.30;99.90;;;;;;4997279;23;20599;-93
2023/02/04 07:08:26;;;;;;;32.15;18.65;;;10.30;99.90;;;;;;5020707;23;20171;-94
2023/02/04 07:10:27;;;;;;;41.70;18.50;;;10.40;99.90;;;;;;4997301;23;20163;-92
2023/02/04 07:12:28;;;;;;;30.75;17.83;;;10.30;99.90;;;;;;5020848;23;20247;-94
2023/02/04 07:14:29;;;;;;;35.15;19.05;;;10.30;99.90;;;;;;5020893;23;20645;-93
2023/02/04 07:16:30;;;;;;;36.38;19.13;;;10.40;99.90;;;;;;5020632;23;20171;-93
2023/02/04 07:18:31;;;;;;;39.72;19.77;;;10.50;99.90;;;;;;5020841;23;20303;-94
2023/02/04 07:20:31;;;;;;;32.53;18.83;;;10.50;99.90;;;;;;5021329;23;20155;-93
2023/02/04 07:22:32;;;;;;;32.05;18.77;;;10.40;99.90;;;;;;5020946;23;20191;-92
2023/02/04 07:24:33;;;;;;;34.60;19.17;;;10.30;99.90;;;;;;5020800;23;20227;-96
2023/02/04 07:26:34;;;;;;;36.35;19.38;;;10.30;99.90;;;;;;5020875;23;20159;-93
2023/02/04 07:28:35;;;;;;;42.72;18.88;;;10.50;99.90;;;;;;5020603;23;20171;-93
2023/02/04 07:30:36;;;;;;;34.85;19.15;;;10.40;99.90;;;;;;4997048;23;20207;-94
2023/02/04 07:32:37;;;;;;;32.30;18.23;;;10.50;99.90;;;;;;4997328;23;20238;-93
2023/02/04 07:34:38;;;;;;;41.20;19.52;;;10.70;99.90;;;;;;4997168;23;20247;-93
2023/02/04 07:36:42;;;;;;;35.60;20.15;;;10.70;99.90;;;;;;5020864;23;20222;-92
2023/02/04 07:38:42;;;;;;;39.47;19.35;;;10.40;99.90;;;;;;5021099;23;20498;-93
2023/02/04 07:40:43;;;;;;;32.17;19.27;;;10.30;99.90;;;;;;5021047;23;20159;-93
2023/02/04 07:42:44;;;;;;;36.60;19.73;;;10.30;99.90;;;;;;4998297;23;20627;-93
2023/02/04 07:44:50;;;;;;;32.38;18.67;;;10.30;99.90;;;;;;4999745;23;20160;-93
2023/02/04 07:46:51;;;;;;;39.95;19.88;;;10.40;99.90;;;;;;4998458;23;20659;-95
2023/02/04 07:48:52;;;;;;;35.00;18.92;;;10.60;99.90;;;;;;4998623;23;20515;-95
2023/02/04 07:50:52;;;;;;;40.13;19.77;;;10.70;99.90;;;;;;4998688;23;20160;-96
2023/02/04 07:52:53;;;;;;;40.40;19.83;;;10.90;99.90;;;;;;5022569;23;20233;-95
2023/02/04 07:54:54;;;;;;;35.50;19.75;;;11.00;99.90;;;;;;4999174;23;20483;-94
2023/02/04 07:56:55;;;;;;;37.58;19.73;;;11.10;99.90;;;;;;4998819;23;20155;-94
2023/02/04 07:58:56;;;;;;;40.03;19.17;;;11.20;99.90;;;;;;4998587;23;20180;-92
2023/02/04 08:01:00;;;;;;;34.90;20.20;;;11.10;99.90;;;;;;5022550;23;20699;-94
2023/02/04 08:03:04;;;;;;;34.72;20.17;;;11.00;99.90;;;;;;5022594;23;20166;-94
2023/02/04 08:05:05;;;;;;;37.88;19.75;;;10.80;99.90;;;;;;4998856;23;20155;-95
2023/02/04 08:07:11;;;;;;;36.13;19.65;;;10.90;99.90;;;;;;5022014;23;20634;-93
2023/02/04 08:09:12;;;;;;;35.17;20.27;;;11.00;99.90;;;;;;4998524;23;20523;-93
2023/02/04 08:11:12;;;;;;;41.38;19.35;;;10.90;99.90;;;;;;4998575;23;20160;-93
2023/02/04 08:13:13;;;;;;;40.10;19.63;;;10.80;99.90;;;;;;4998253;23;20171;-96
2023/02/04 08:15:14;;;;;;;36.72;19.42;;;10.50;99.90;;;;;;4998463;23;20182;-93
2023/02/04 08:17:15;;;;;;;32.75;18.92;;;10.50;99.90;;;;;;5022311;23;20155;-93
2023/02/04 08:19:19;;;;;;;38.40;19.75;;;10.60;99.90;;;;;;5022139;23;20265;-93
2023/02/04 08:21:20;;;;;;;36.53;18.80;;;10.60;99.90;;;;;;4998486;23;20562;-94
2023/02/04 08:23:23;;;;;;;35.78;19.20;;;10.40;99.90;;;;;;4998437;23;20675;-93
2023/02/04 08:25:27;;;;;;;29.75;17.63;;;10.60;99.90;;;;;;4998916;23;20160;-93
2023/02/04 08:27:31;;;;;;;32.35;17.38;;;10.40;99.90;;;;;;5021976;23;20195;-93
2023/02/04 08:29:32;;;;;;;28.23;15.98;;;10.60;99.90;;;;;;5022408;23;20510;-96
2023/02/04 08:31:36;;;;;;;26.85;16.55;;;10.50;99.90;;;;;;5022129;23;20154;-94
2023/02/04 08:33:40;;;;;;;24.90;15.23;;;10.60;99.90;;;;;;5022116;23;20155;-93
2023/02/04 08:35:43;;;;;;;26.55;14.30;;;10.60;99.90;;;;;;5022040;23;20158;-92
2023/02/04 08:37:44;;;;;;;22.50;13.68;;;10.50;99.90;;;;;;4998329;23;20162;-93
2023/02/04 08:39:47;;;;;;;21.83;12.13;;;10.50;99.90;;;;;;4998523;23;20234;-92
2023/02/04 08:41:51;;;;;;;21.45;13.13;;;10.50;99.90;;;;;;4998073;23;20199;-93
2023/02/04 08:43:56;;;;;;;20.48;12.48;;;10.60;99.90;;;;;;4998304;23;20156;-92
2023/02/04 08:45:57;;;;;;;19.70;12.65;;;10.60;99.90;;;;;;5022367;23;20212;-94
2023/02/04 08:48:11;;;;;;;21.50;13.13;;;10.40;99.90;;;;;;5022733;23;20167;-94
2023/02/04 08:50:37;;;;;;;19.00;12.23;;;10.80;99.90;;;;;;4998258;23;20160;-95
2023/02/04 08:53:33;;;;;;;;;;;;;;;;;;;;;
2023/02/04 08:56:01;;;;;;;21.60;11.40;;;10.80;99.90;;;;;;5021798;23;20167;-94
2023/02/04 08:58:19;;;;;;;15.57;10.27;;;11.00;99.90;;;;;;5021232;23;20178;-94
2023/02/04 09:00:41;;;;;;;17.95;10.82;;;11.00;99.90;;;;;;5024121;23;20167;-93
2023/02/04 09:03:06;;;;;;;19.90;10.98;;;11.20;99.90;;;;;;5021869;23;20171;-94
2023/02/04 09:05:20;;;;;;;;;;;;;;;;;;;;;
2023/02/04 09:07:47;;;;;;;18.40;11.38;;;11.00;99.90;;;;;;5041219;23;20169;-95
2023/02/04 09:10:44;;;;;;;18.42;11.23;;;10.70;99.90;;;;;;5021566;23;20242;-95
2023/02/04 09:13:19;;;;;;;18.42;11.95;;;10.60;99.90;;;;;;5021808;23;20250;-93
2023/02/04 09:16:23;;;;;;;21.17;12.75;;;10.50;99.90;;;;;;5021126;23;20163;-93
2023/02/04 09:19:02;;;;;;;;;;;;;;;;;;;;;
2023/02/04 09:25:21;;;;;;;22.55;12.80;;;10.80;99.90;;;;;;4972038;23;20161;-95
2023/02/04 11:09:23;;;;;;;34.22;17.13;;;12.50;99.90;;;;;;4808779;24;20567;-94
2023/02/04 11:11:57;;;;;;;32.30;15.85;;;12.50;99.90;;;;;;4836539;24;20635;-96
2023/02/04 11:14:27;;;;;;;33.08;16.05;;;12.30;99.90;;;;;;4915833;24;20265;-92
2023/02/04 11:16:34;;;;;;;32.10;16.83;;;12.20;99.90;;;;;;4962521;23;20166;-94
2023/02/04 11:19:02;;;;;;;32.63;16.63;;;12.30;99.90;;;;;;5044949;23;20256;-93
2023/02/04 11:21:42;;;;;;;38.80;17.35;;;12.00;99.90;;;;;;5020695;23;20163;-93
2023/02/04 11:23:51;;;;;;;34.20;17.98;;;12.00;99.90;;;;;;5017686;23;20182;-94
2023/02/04 11:26:37;;;;;;;39.90;18.85;;;12.20;99.90;;;;;;5069184;23;20184;-95
2023/02/04 11:28:55;;;;;;;36.20;18.23;;;12.60;99.90;;;;;;5022212;23;20559;-92
2023/02/04 11:31:17;;;;;;;;;;;;;;;;;;;;;
2023/02/04 11:33:46;;;;;;;33.00;16.73;;;12.70;99.90;;;;;;5069327;23;20157;-95
2023/02/04 11:36:13;;;;;;;34.22;17.02;;;12.90;99.90;;;;;;5020470;23;20253;-93
2023/02/04 11:38:29;;;;;;;31.77;15.70;;;12.40;99.90;;;;;;5021596;23;20241;-93
2023/02/04 11:40:35;;;;;;;34.53;16.92;;;12.30;99.90;;;;;;5045035;23;20193;-95
2023/02/04 11:43:01;;;;;;;28.35;16.10;;;12.30;99.90;;;;;;5021259;23;20198;-94
2023/02/04 11:48:02;;;;;;;27.10;13.90;;;12.40;99.90;;;;;;5058488;23;20486;-93
2023/02/04 11:50:44;;;;;;;33.28;14.93;;;12.50;99.90;;;;;;5046142;23;20193;-95
2023/02/04 11:53:00;;;;;;;30.92;14.50;;;12.20;99.90;;;;;;5037631;23;20165;-94
2023/02/04 11:55:01;;;;;;;33.35;14.43;;;12.40;99.90;;;;;;5045526;23;20150;-94
2023/02/04 11:57:45;;;;;;;27.65;14.02;;;12.60;99.90;;;;;;5020541;23;20710;-95
2023/02/04 12:00:13;;;;;;;23.33;14.27;;;13.10;99.90;;;;;;4998994;23;20216;-94
2023/02/04 12:02:58;;;;;;;;;;;;;;;;;;;;;
2023/02/04 12:14:16;;;;;;;22.15;11.98;;;12.90;99.90;;;;;;5067243;23;20181;-95
2023/02/04 12:27:57;;;;;;;;;;;;;;;;;;;;;
2023/02/04 12:31:22;;;;;;;23.67;11.60;;;14.10;99.90;;;;;;4877835;24;20185;-93
2023/02/04 12:39:09;;;;;;;;;;;;;;;;;;;;;
2023/02/04 12:45:45;;;;;;;;;;;;;;;;;;;;;
2023/02/04 13:03:36;;;;;;;;;;;;;;;;;;;;;
2023/02/04 13:07:09;;;;;;;21.77;11.25;;;13.20;99.90;;;;;;4708947;25;20191;-95
2023/02/04 13:16:58;;;;;;;22.30;10.80;;;13.30;99.90;;;;;;5071405;23;20484;-93
2023/02/04 13:19:02;;;;;;;21.38;10.65;;;13.20;99.90;;;;;;5021507;23;20183;-94
2023/02/04 13:21:48;;;;;;;22.75;10.70;;;12.90;99.90;;;;;;5043860;23;20182;-94
2023/02/04 13:27:01;;;;;;;25.67;12.23;;;13.50;99.90;;;;;;5037087;23;20162;-94
2023/02/04 13:29:16;;;;;;;21.70;10.93;;;13.70;99.90;;;;;;5028703;23;20177;-92
2023/02/04 13:32:14;;;;;;;25.85;11.55;;;13.60;99.90;;;;;;5048347;23;20249;-94
2023/02/04 13:35:18;;;;;;;;;;;;;;;;;;;;;
2023/02/04 13:36:55;;;;;;;27.20;11.80;;;13.60;99.90;;;;;;5030158;23;20173;-93